Airfield :
LOGIN :

Register | Disclaimer

   EN    FR    IT 

 










Legend :    VFR   Marginal VFR   IFR   Intensive IFR   Very Intensive IFR
Visi :
Ceiling :
>= 8 km
>= 3000ft
5 to 8 km
1000 to 3000 ft
1500m to 5 km
500 to 1000 ft
800 to 1500m
200 to 500 ft
< 800m
< 200 ft
Symbols :   Thunderstorms  Fog  Heavy snow  Heavy precipitations  Wind > 20 kt
SIGMETs :     Misc.  Thunderstorms  Icing  Turbulence  Mountain Waves  Volcanic Ashes







- Airport Elevation : 142 ft
- IATA code : ALC


LEAL - Alicante

CURRENT METAR :
  • 270300Z 07009KT 9999 FEW010 SCT065 17/15 Q1008 NOSIG

EXPIRED METARs :
  • 270230Z 07010KT 9999 FEW010 SCT065 17/14 Q1008 NOSIG
  • 270200Z 07010KT 9999 FEW010 SCT065 17/14 Q1008 NOSIG
  • 270130Z 09012KT 9999 FEW010 SCT065 17/14 Q1008 NOSIG
  • 270100Z 10009KT 070V130 9999 FEW010 SCT065 17/14 Q1009 NOSIG
  • 270030Z 10009KT 080V140 9999 FEW010 SCT065 17/14 Q1009 NOSIG

TAF TAF LEAL
Valid from the 27 at 00:00 until the 28 at 00:00 UTC


262300Z 2700/2724 06010KT 9999 FEW040 TX20/2712Z TN12/2706Z
PROB40
TEMPO 2704/2709 VRB07KT
PROB30
TEMPO 2710/2720 RA BKN040
TEMPO 2716/2720 06015G25KT
BECMG 2722/2724 33005KT
No reported NOTAMs for that airfield.



MET'MAP, your aeronautical weather chart ! - Copyright ORBIFLY December 2007 - Disclaimer

ORBIFLY MET'MAP TEAM :

Programming & Development : Alexandra Zaïnal
Concept & Development : Baudouin d'Aumeries
Co-Development & Prog : Marc-Olivier Méhu
Technical & hardware support : Manuel Goepfert

Contact : metmap@orbifly.com




SOURCES & CREDITS :

   NOAA